Time;durP1;ratioP1;P1;durP2;ratioP2;P2;SDS_P1;SDS_P2;PMS_P1;PMS_P2;Temp;Humidity;BMP_temperature;BMP_pressure;BME280_temperature;BME280_humidity;BME280_pressure;Samples;Min_cycle;Max_cycle;Signal;HPM_P1;HPM_P2
2022/11/27 00:02:30;;;;;;;;;;;5.50;99.90;;;;;;2621662;46;20822;31
2022/11/27 00:05:08;;;;;;;;;;;5.50;99.90;;;;;;2603339;54;20688;31
2022/11/27 00:07:46;;;;;;;;;;;5.50;99.90;;;;;;2603193;54;20010;31
2022/11/27 00:10:21;;;;;;;;;;;5.50;99.90;;;;;;2603307;54;20686;31
2022/11/27 00:12:55;;;;;;;;;;;5.50;99.90;;;;;;2720366;39;20461;31
2022/11/27 00:15:30;;;;;;;;;;;5.50;99.90;;;;;;2603182;54;19974;31
2022/11/27 00:18:04;;;;;;;;;;;5.50;99.90;;;;;;2613154;46;19942;31
2022/11/27 00:20:38;;;;;;;;;;;5.50;99.90;;;;;;2617572;46;19938;31
2022/11/27 00:23:16;;;;;;;;;;;5.50;99.90;;;;;;2603374;54;19942;31
2022/11/27 00:25:53;;;;;;;;;;;5.50;99.90;;;;;;2621804;47;20009;31
2022/11/27 00:28:27;;;;;;;;;;;5.50;99.90;;;;;;2617489;47;19935;31
2022/11/27 00:31:02;;;;;;;;;;;5.50;99.90;;;;;;2603329;54;19942;31
2022/11/27 00:33:36;;;;;;;;;;;5.50;99.90;;;;;;2603176;54;19934;31
2022/11/27 00:36:11;;;;;;;;;;;5.50;99.90;;;;;;2603249;54;20694;31
2022/11/27 00:38:49;;;;;;;;;;;5.50;99.90;;;;;;2701686;39;20404;31
2022/11/27 00:41:25;;;;;;;;;;;5.50;99.90;;;;;;2609008;47;19945;31
2022/11/27 00:43:59;;;;;;;;;;;5.50;99.90;;;;;;2621392;47;19934;31
2022/11/27 00:46:34;;;;;;;;;;;5.50;99.90;;;;;;2604095;54;19961;31
2022/11/27 00:49:08;;;;;;;;;;;5.50;99.90;;;;;;2622726;46;20775;31
2022/11/27 00:51:42;;;;;;;;;;;5.50;99.90;;;;;;2609552;46;20751;31
2022/11/27 00:54:19;;;;;;;;;;;5.50;99.90;;;;;;2604087;54;19942;31
2022/11/27 00:56:55;;;;;;;;;;;5.70;99.90;;;;;;2603984;54;20831;31
2022/11/27 00:59:29;;;;;;;;;;;5.50;99.90;;;;;;2603928;54;20800;31
2022/11/27 01:02:03;;;;;;;;;;;5.50;99.90;;;;;;2622787;46;19935;31
2022/11/27 01:04:37;;;;;;;;;;;5.50;99.90;;;;;;2720767;39;20425;31
2022/11/27 01:07:13;;;;;;;;;;;5.50;99.90;;;;;;2603947;54;19942;31
2022/11/27 01:09:50;;;;;;;;;;;5.50;99.90;;;;;;2622324;46;19994;31
2022/11/27 01:12:24;;;;;;;;;;;5.50;99.90;;;;;;2604079;54;20485;31
2022/11/27 01:14:59;;;;;;;;;;;5.50;99.90;;;;;;2603886;54;20014;31
2022/11/27 01:17:33;;;;;;;;;;;5.40;99.90;;;;;;2622303;46;19939;31
2022/11/27 01:20:08;;;;;;;;;;;5.50;99.90;;;;;;2622577;46;19992;31
2022/11/27 01:22:42;;;;;;;;;;;5.40;99.90;;;;;;2603775;54;19993;31
2022/11/27 01:25:19;;;;;;;;;;;5.40;99.90;;;;;;2613623;46;20788;31
2022/11/27 01:27:59;;;;;;;;;;;5.40;99.90;;;;;;2603863;54;20807;31
2022/11/27 01:30:34;;;;;;;;;;;5.40;99.90;;;;;;2622463;46;20819;31
2022/11/27 01:33:08;;;;;;;;;;;5.40;99.90;;;;;;2603812;54;19938;31
2022/11/27 01:35:43;;;;;;;;;;;5.40;99.90;;;;;;2622473;46;19934;31
2022/11/27 01:38:18;;;;;;;;;;;5.40;99.90;;;;;;2603790;54;19941;31
2022/11/27 01:40:52;;;;;;;;;;;5.40;99.90;;;;;;2618009;46;19943;31
2022/11/27 01:43:40;;;;;;;;;;;5.40;99.90;;;;;;2603836;54;19935;31
2022/11/27 01:48:48;;;;;;;;;;;5.50;99.90;;;;;;2622312;46;19934;31
2022/11/27 01:51:23;;;;;;;;;;;5.50;99.90;;;;;;2622358;46;20722;31
2022/11/27 01:53:57;;;;;;;;;;;5.40;99.90;;;;;;2603988;54;20731;31
2022/11/27 01:56:31;;;;;;;;;;;5.50;99.90;;;;;;2603785;54;20785;31
2022/11/27 01:59:06;;;;;;;;;;;5.50;99.90;;;;;;2603958;54;19939;31
2022/11/27 02:01:43;;;;;;;;;;;5.50;99.90;;;;;;2603774;54;19934;31
2022/11/27 02:04:22;;;;;;;;;;;5.50;99.90;;;;;;2603910;54;19935;31
2022/11/27 02:06:56;;;;;;;;;;;5.40;99.90;;;;;;2702277;39;20457;31
2022/11/27 02:09:30;;;;;;;;;;;5.50;99.90;;;;;;2603883;54;20777;31
2022/11/27 02:12:06;;;;;;;;;;;5.40;99.90;;;;;;2620148;46;20005;31
2022/11/27 02:14:41;;;;;;;;;;;5.50;99.90;;;;;;2604032;54;20763;31
2022/11/27 02:17:17;;;;;;;;;;;5.50;99.90;;;;;;2720808;39;20380;31
2022/11/27 02:19:57;;;;;;;;;;;5.50;99.90;;;;;;2603494;54;20769;31
2022/11/27 02:22:34;;;;;;;;;;;5.40;99.90;;;;;;2702357;39;20449;31
2022/11/27 02:25:09;;;;;;;;;;;5.40;99.90;;;;;;2603465;54;20745;31
2022/11/27 02:27:52;;;;;;;;;;;5.50;99.90;;;;;;2702381;39;20445;31
2022/11/27 02:30:29;;;;;;;;;;;5.40;99.90;;;;;;2622337;46;20766;31
2022/11/27 02:33:04;;;;;;;;;;;5.40;99.90;;;;;;2603859;54;20722;31
2022/11/27 02:35:38;;;;;;;;;;;5.40;99.90;;;;;;2603661;54;19950;31
2022/11/27 02:38:12;;;;;;;;;;;5.40;99.90;;;;;;2621622;46;19934;31
2022/11/27 02:40:47;;;;;;;;;;;5.40;99.90;;;;;;2702351;39;20312;31
2022/11/27 02:43:23;;;;;;;;;;;5.40;99.90;;;;;;2702289;39;21481;31
2022/11/27 02:45:58;;;;;;;;;;;5.40;99.90;;;;;;2603660;54;20512;31
2022/11/27 02:48:33;;;;;;;;;;;5.40;99.90;;;;;;2602893;54;19942;31
2022/11/27 02:51:06;;;;;;;;;;;5.40;99.90;;;;;;2622172;46;20783;31
2022/11/27 02:53:41;;;;;;;;;;;5.40;99.90;;;;;;2603686;54;20751;31
2022/11/27 02:56:19;;;;;;;;;;;5.40;99.90;;;;;;2622376;46;20784;31
2022/11/27 02:58:51;;;;;;;;;;;5.40;99.90;;;;;;2603504;54;20807;31
2022/11/27 03:01:29;;;;;;;;;;;5.40;99.90;;;;;;2603604;54;20757;31
2022/11/27 03:04:03;;;;;;;;;;;5.40;99.90;;;;;;2792192;31;20628;31
2022/11/27 03:06:40;;;;;;;;;;;5.50;99.90;;;;;;2603568;54;19989;31
2022/11/27 03:09:15;;;;;;;;;;;5.40;99.90;;;;;;2603229;54;20764;31
2022/11/27 03:11:48;;;;;;;;;;;5.40;99.90;;;;;;2702196;39;20544;31
2022/11/27 03:14:23;;;;;;;;;;;5.40;99.90;;;;;;2603713;54;20792;31
2022/11/27 03:17:02;;;;;;;;;;;5.50;99.90;;;;;;2603403;54;19966;31
2022/11/27 03:19:39;;;;;;;;;;;5.50;99.90;;;;;;2603270;54;20009;31
2022/11/27 03:22:11;;;;;;;;;;;5.50;99.90;;;;;;2702152;39;20421;31
2022/11/27 03:24:48;;;;;;;;;;;5.50;99.90;;;;;;2603390;54;20713;31
2022/11/27 03:27:25;;;;;;;;;;;5.50;99.90;;;;;;2603274;54;20774;31
2022/11/27 03:29:58;;;;;;;;;;;5.50;99.90;;;;;;2603638;54;19935;31
2022/11/27 03:32:38;;;;;;;;;;;5.50;99.90;;;;;;2603645;54;20710;31
2022/11/27 03:35:13;;;;;;;;;;;5.50;99.90;;;;;;2622110;46;19934;31
2022/11/27 03:37:47;;;;;;;;;;;5.50;99.90;;;;;;2603690;54;19938;31
2022/11/27 03:40:21;;;;;;;;;;;5.50;99.90;;;;;;2603271;54;19942;31
2022/11/27 03:42:59;;;;;;;;;;;5.50;99.90;;;;;;2603299;54;20774;31
2022/11/27 03:45:35;;;;;;;;;;;5.50;99.90;;;;;;2603465;54;20810;31
2022/11/27 03:48:17;;;;;;;;;;;5.50;99.90;;;;;;2603459;54;19938;31
2022/11/27 03:50:55;;;;;;;;;;;5.50;99.90;;;;;;2603382;54;20732;31
2022/11/27 03:53:31;;;;;;;;;;;5.50;99.90;;;;;;2622185;46;19946;31
2022/11/27 03:56:07;;;;;;;;;;;5.50;99.90;;;;;;2603365;54;19941;31
2022/11/27 03:58:45;;;;;;;;;;;5.50;99.90;;;;;;2603326;54;20776;31
2022/11/27 04:01:19;;;;;;;;;;;5.50;99.90;;;;;;2603509;54;19934;31
2022/11/27 04:03:55;;;;;;;;;;;5.50;99.90;;;;;;2603260;54;19957;31
2022/11/27 04:06:29;;;;;;;;;;;5.50;99.90;;;;;;2603550;54;19935;31
2022/11/27 04:09:03;;;;;;;;;;;5.50;99.90;;;;;;2621946;46;19942;31
2022/11/27 04:11:38;;;;;;;;;;;5.50;99.90;;;;;;2707312;39;20374;31
2022/11/27 04:14:12;;;;;;;;;;;5.50;99.90;;;;;;2603269;54;20781;31
2022/11/27 04:16:46;;;;;;;;;;;5.50;99.90;;;;;;2613190;46;19935;31
2022/11/27 04:19:23;;;;;;;;;;;5.50;99.90;;;;;;2603434;54;19950;31
2022/11/27 04:21:57;;;;;;;;;;;5.50;99.90;;;;;;2603316;54;19946;31
2022/11/27 04:24:31;;;;;;;;;;;5.50;99.90;;;;;;2604541;47;19942;31
2022/11/27 04:27:06;;;;;;;;;;;5.50;99.90;;;;;;2603285;54;19961;31
2022/11/27 04:29:40;;;;;;;;;;;5.50;99.90;;;;;;2603397;54;19938;31
2022/11/27 04:32:16;;;;;;;;;;;5.50;99.90;;;;;;2603172;54;20771;31
2022/11/27 04:34:53;;;;;;;;;;;5.50;99.90;;;;;;2603055;54;20815;31
2022/11/27 04:37:28;;;;;;;;;;;5.50;99.90;;;;;;2603100;54;19939;31
2022/11/27 04:40:03;;;;;;;;;;;5.40;99.90;;;;;;2603409;54;20000;31
2022/11/27 04:42:39;;;;;;;;;;;5.40;99.90;;;;;;2621617;47;19943;31
2022/11/27 04:45:14;;;;;;;;;;;6.20;99.90;;;;;;2617418;47;19939;31
2022/11/27 04:47:51;;;;;;;;;;;5.40;99.90;;;;;;2602854;54;20829;31
2022/11/27 04:50:26;;;;;;;;;;;5.40;99.90;;;;;;2603397;54;19934;31
2022/11/27 04:53:03;;;;;;;;;;;5.50;99.90;;;;;;2603140;54;19935;31
2022/11/27 04:55:36;;;;;;;;;;;5.40;99.90;;;;;;2603212;54;19942;31
2022/11/27 04:58:10;;;;;;;;;;;5.40;99.90;;;;;;2612150;47;19981;31
2022/11/27 05:00:45;;;;;;;;;;;5.50;99.90;;;;;;2603037;54;20667;31
2022/11/27 05:03:20;;;;;;;;;;;5.50;99.90;;;;;;2621474;47;20454;31
2022/11/27 05:05:56;;;;;;;;;;;5.40;99.90;;;;;;2621565;47;20813;31
2022/11/27 05:08:38;;;;;;;;;;;5.40;99.90;;;;;;2621374;47;20481;31
2022/11/27 05:11:13;;;;;;;;;;;5.40;99.90;;;;;;2621802;47;19942;31
2022/11/27 05:13:47;;;;;;;;;;;5.40;99.90;;;;;;2621397;47;19952;31
2022/11/27 05:16:22;;;;;;;;;;;5.40;99.90;;;;;;2603201;54;20013;31
2022/11/27 05:18:56;;;;;;;;;;;5.40;99.90;;;;;;2621409;47;20545;31
2022/11/27 05:21:30;;;;;;;;;;;5.40;99.90;;;;;;2621559;47;19941;31
2022/11/27 05:24:09;;;;;;;;;;;5.40;99.90;;;;;;2603148;54;19942;31
2022/11/27 05:29:14;;;;;;;;;;;5.40;99.90;;;;;;2602903;54;20830;31
2022/11/27 05:31:48;;;;;;;;;;;5.40;99.90;;;;;;2603325;54;20801;31
2022/11/27 05:34:22;;;;;;;;;;;5.40;99.90;;;;;;2603781;54;20790;31
2022/11/27 05:36:56;;;;;;;;;;;5.40;99.90;;;;;;2603821;54;19942;31
2022/11/27 05:39:33;;;;;;;;;;;5.40;99.90;;;;;;2603925;54;20746;31
2022/11/27 05:42:07;;;;;;;;;;;5.50;99.90;;;;;;2603695;54;20777;31
2022/11/27 05:44:42;;;;;;;;;;;5.50;99.90;;;;;;2603832;54;19935;31
2022/11/27 05:47:18;;;;;;;;;;;5.50;99.90;;;;;;2622245;46;20462;31
2022/11/27 05:49:53;;;;;;;;;;;5.50;99.90;;;;;;2604093;54;20771;31
2022/11/27 05:52:26;;;;;;;;;;;5.50;99.90;;;;;;2603862;54;20749;31
2022/11/27 05:55:03;;;;;;;;;;;5.50;99.90;;;;;;2702241;39;20440;31
2022/11/27 05:57:37;;;;;;;;;;;5.50;99.90;;;;;;2702316;39;20459;31
2022/11/27 06:00:15;;;;;;;;;;;5.50;99.90;;;;;;2604646;46;19939;31
2022/11/27 06:02:47;;;;;;;;;;;5.50;99.90;;;;;;2604923;46;20744;31
2022/11/27 06:05:20;;;;;;;;;;;5.50;99.90;;;;;;2617773;46;19946;31
2022/11/27 06:07:54;;;;;;;;;;;5.50;99.90;;;;;;2622232;46;20013;31
2022/11/27 06:10:31;;;;;;;;;;;5.50;99.90;;;;;;2603587;54;20002;31
2022/11/27 06:13:05;;;;;;;;;;;5.50;99.90;;;;;;2622539;46;19961;31
2022/11/27 06:15:42;;;;;;;;;;;5.50;99.90;;;;;;2603677;54;19935;31
2022/11/27 06:18:16;;;;;;;;;;;5.50;99.90;;;;;;2720748;39;20425;31
2022/11/27 06:20:50;;;;;;;;;;;5.50;99.90;;;;;;2603603;54;20780;31
2022/11/27 06:23:25;;;;;;;;;;;5.50;99.90;;;;;;2603563;54;19943;31
2022/11/27 06:26:04;;;;;;;;;;;5.40;99.90;;;;;;2603704;54;19934;31
2022/11/27 06:28:38;;;;;;;;;;;5.40;99.90;;;;;;2603624;54;20454;31
2022/11/27 06:31:13;;;;;;;;;;;5.40;99.90;;;;;;2603586;54;19941;31
2022/11/27 06:33:50;;;;;;;;;;;5.40;99.90;;;;;;2603564;54;20768;31
2022/11/27 06:36:24;;;;;;;;;;;5.40;99.90;;;;;;2603977;54;20748;31
2022/11/27 06:38:58;;;;;;;;;;;5.40;99.90;;;;;;2621956;46;20734;31
2022/11/27 06:41:35;;;;;;;;;;;5.30;99.90;;;;;;2603736;54;20466;31
2022/11/27 06:44:09;;;;;;;;;;;6.00;99.90;;;;;;2621853;47;20533;31
2022/11/27 06:46:44;;;;;;;;;;;5.30;99.90;;;;;;2612405;46;19935;31
2022/11/27 06:49:19;;;;;;;;;;;5.40;99.90;;;;;;2617907;46;19935;31
2022/11/27 06:51:55;;;;;;;;;;;5.40;99.90;;;;;;2622429;46;19961;31
2022/11/27 06:54:28;;;;;;;;;;;5.40;99.90;;;;;;2622016;46;20403;31
2022/11/27 06:57:05;;;;;;;;;;;5.40;99.90;;;;;;2621924;46;19935;31
2022/11/27 06:59:39;;;;;;;;;;;5.30;99.90;;;;;;2702506;39;20453;31
2022/11/27 07:02:14;;;;;;;;;;;5.30;99.90;;;;;;2603454;54;19942;31
2022/11/27 07:04:48;;;;;;;;;;;6.20;99.90;;;;;;2603831;54;19934;31
2022/11/27 07:07:22;;;;;;;;;;;5.30;99.90;;;;;;2603671;54;19935;31
2022/11/27 07:09:56;;;;;;;;;;;5.30;99.90;;;;;;2603394;54;20845;31
2022/11/27 07:12:34;;;;;;;;;;;5.30;99.90;;;;;;2603575;54;19935;31
2022/11/27 07:15:09;;;;;;;;;;;5.30;99.90;;;;;;2622380;46;20770;31
2022/11/27 07:17:44;;;;;;;;;;;5.30;99.90;;;;;;2603764;54;19941;31
2022/11/27 07:20:18;;;;;;;;;;;5.30;99.90;;;;;;2720634;39;20529;31
2022/11/27 07:22:52;;;;;;;;;;;5.30;99.90;;;;;;2617611;46;20833;31
2022/11/27 07:25:29;;;;;;;;;;;5.30;99.90;;;;;;2603670;54;20789;31
2022/11/27 07:30:38;;;;;;;;;;;5.40;99.90;;;;;;2603698;54;20009;31
2022/11/27 07:33:13;;;;;;;;;;;5.40;99.90;;;;;;2603380;54;20488;31
2022/11/27 07:35:48;;;;;;;;;;;5.50;99.90;;;;;;2603107;54;19942;31
2022/11/27 07:38:22;;;;;;;;;;;5.50;99.90;;;;;;2603375;54;20817;31
2022/11/27 07:40:56;;;;;;;;;;;5.50;99.90;;;;;;2604192;46;19943;31
2022/11/27 07:43:31;;;;;;;;;;;5.50;99.90;;;;;;2603443;54;19950;31
2022/11/27 07:46:08;;;;;;;;;;;5.60;99.90;;;;;;2603519;54;19935;31
2022/11/27 07:48:42;;;;;;;;;;;5.60;99.90;;;;;;2603456;54;19935;31
2022/11/27 07:51:17;;;;;;;;;;;5.60;99.90;;;;;;2710800;39;20533;31
2022/11/27 07:53:52;;;;;;;;;;;5.60;99.90;;;;;;2603145;54;20702;31
2022/11/27 07:56:29;;;;;;;;;;;5.60;99.90;;;;;;2603220;54;19990;31
2022/11/27 07:59:05;;;;;;;;;;;5.60;99.90;;;;;;2622017;46;19941;31
2022/11/27 08:01:43;;;;;;;;;;;5.60;99.90;;;;;;2604354;47;20790;31
2022/11/27 08:04:19;;;;;;;;;;;5.60;99.90;;;;;;2603612;54;20402;31
2022/11/27 08:06:54;;;;;;;;;;;5.70;99.90;;;;;;2711765;39;20369;31
2022/11/27 08:09:28;;;;;;;;;;;5.70;99.90;;;;;;2603399;54;19935;31
2022/11/27 08:12:03;;;;;;;;;;;5.80;99.90;;;;;;2701694;39;20401;31
2022/11/27 08:14:37;;;;;;;;;;;5.80;99.90;;;;;;2603191;54;20766;31
2022/11/27 08:17:17;;;;;;;;;;;5.90;99.90;;;;;;2603452;54;19941;31
2022/11/27 08:19:51;;;;;;;;;;;5.90;99.90;;;;;;2603355;54;19934;31
2022/11/27 08:22:28;;;;;;;;;;;5.90;99.90;;;;;;2603266;54;21264;31
2022/11/27 08:25:02;;;;;;;;;;;5.90;99.90;;;;;;2621459;46;19934;31
2022/11/27 08:27:43;;;;;;;;;;;5.90;99.90;;;;;;2603148;54;20917;31
2022/11/27 08:33:09;;;;;;;;;;;6.00;99.90;;;;;;2621657;47;19960;31
2022/11/27 08:35:44;;;;;;;;;;;6.00;99.90;;;;;;2603486;54;19934;31
2022/11/27 08:38:18;;;;;;;;;;;6.00;99.90;;;;;;2609411;47;19942;31
2022/11/27 08:40:55;;;;;;;;;;;6.00;99.90;;;;;;2720025;39;22280;31
2022/11/27 08:43:29;;;;;;;;;;;6.00;99.90;;;;;;2603368;54;21284;31
2022/11/27 08:46:05;;;;;;;;;;;6.00;99.90;;;;;;2603349;54;19941;31
2022/11/27 08:48:40;;;;;;;;;;;6.00;99.90;;;;;;2603085;54;19935;31
2022/11/27 08:51:16;;;;;;;;;;;6.00;99.90;;;;;;2603332;54;20760;31
2022/11/27 08:53:51;;;;;;;;;;;5.90;99.90;;;;;;2621475;47;19935;31
2022/11/27 08:56:24;;;;;;;;;;;6.00;99.90;;;;;;2603287;54;20760;31
2022/11/27 08:58:59;;;;;;;;;;;5.90;99.90;;;;;;2621574;47;19941;31
2022/11/27 09:01:34;;;;;;;;;;;6.00;99.90;;;;;;2602811;54;20772;31
2022/11/27 09:04:13;;;;;;;;;;;5.90;99.90;;;;;;2602804;54;19937;31
2022/11/27 09:06:48;;;;;;;;;;;6.00;99.90;;;;;;2603640;54;19962;31
2022/11/27 09:09:30;;;;;;;;;;;6.00;99.90;;;;;;2603886;54;20701;31
2022/11/27 09:12:02;;;;;;;;;;;5.90;99.90;;;;;;2604120;54;20728;31
2022/11/27 09:14:37;;;;;;;;;;;6.00;99.90;;;;;;2702437;39;20369;31
2022/11/27 09:17:11;;;;;;;;;;;6.00;99.90;;;;;;2621996;46;20723;31
2022/11/27 09:19:49;;;;;;;;;;;6.00;99.90;;;;;;2603815;54;19935;31
2022/11/27 09:22:23;;;;;;;;;;;6.00;99.90;;;;;;2604040;54;19935;31
2022/11/27 09:24:58;;;;;;;;;;;6.00;99.90;;;;;;2613856;46;19934;31
2022/11/27 09:27:33;;;;;;;;;;;6.00;99.90;;;;;;2603798;54;20013;31
2022/11/27 09:30:11;;;;;;;;;;;6.00;99.90;;;;;;2622414;46;20785;31
2022/11/27 09:32:46;;;;;;;;;;;6.00;99.90;;;;;;2604008;54;19935;31
2022/11/27 09:35:23;;;;;;;;;;;6.00;99.90;;;;;;2603831;54;19989;31
2022/11/27 09:37:57;;;;;;;;;;;6.00;99.90;;;;;;2603808;54;20758;31
2022/11/27 09:40:33;;;;;;;;;;;6.00;99.90;;;;;;2622518;46;19957;31
2022/11/27 09:43:09;;;;;;;;;;;6.00;99.90;;;;;;2603857;54;21376;31
2022/11/27 09:45:45;;;;;;;;;;;6.00;99.90;;;;;;2603922;54;19934;31
2022/11/27 09:48:20;;;;;;;;;;;6.10;99.90;;;;;;2702343;39;21326;31
2022/11/27 09:50:57;;;;;;;;;;;6.10;99.90;;;;;;2603296;54;20464;31
2022/11/27 09:53:33;;;;;;;;;;;6.20;99.90;;;;;;2603640;54;21398;31
2022/11/27 09:56:08;;;;;;;;;;;6.20;99.90;;;;;;2603970;54;19993;31
2022/11/27 09:58:40;;;;;;;;;;;6.20;99.90;;;;;;2604006;54;20743;31
2022/11/27 10:01:15;;;;;;;;;;;6.20;99.90;;;;;;2622758;46;20749;31
2022/11/27 10:03:48;;;;;;;;;;;6.20;99.90;;;;;;2604022;54;20738;31
2022/11/27 10:06:26;;;;;;;;;;;6.20;99.90;;;;;;2621682;46;19934;31
2022/11/27 10:09:08;;;;;;;;;;;6.20;99.90;;;;;;2603723;54;20725;31
2022/11/27 10:11:43;;;;;;;;;;;6.20;99.90;;;;;;2603784;54;19939;31
2022/11/27 10:14:24;;;;;;;;;;;6.20;99.90;;;;;;2603775;54;20841;31
2022/11/27 10:16:59;;;;;;;;;;;6.20;99.90;;;;;;2622315;46;19935;31
2022/11/27 10:19:34;;;;;;;;;;;6.10;99.90;;;;;;2603794;54;19938;31
2022/11/27 10:22:16;;;;;;;;;;;6.10;99.90;;;;;;2622280;46;19941;31
2022/11/27 10:24:58;;;;;;;;;;;6.10;99.90;;;;;;2622204;46;19961;31
2022/11/27 10:27:33;;;;;;;;;;;6.10;99.90;;;;;;2622209;46;20745;31
2022/11/27 10:30:12;;;;;;;;;;;6.10;99.90;;;;;;2603893;54;20795;31
2022/11/27 10:32:46;;;;;;;;;;;6.10;99.90;;;;;;2603922;54;19935;31
2022/11/27 10:35:30;;;;;;;;;;;6.20;99.90;;;;;;2617960;46;20470;31
2022/11/27 10:38:08;;;;;;;;;;;6.20;99.90;;;;;;2622265;46;19935;31
2022/11/27 10:40:43;;;;;;;;;;;6.20;99.90;;;;;;2603549;54;20800;31
2022/11/27 10:43:20;;;;;;;;;;;6.30;99.90;;;;;;2603551;54;19946;31
2022/11/27 10:45:55;;;;;;;;;;;6.30;99.90;;;;;;2603658;54;19934;31
2022/11/27 10:48:29;;;;;;;;;;;6.40;99.90;;;;;;2603608;54;20747;31
2022/11/27 10:51:04;;;;;;;;;;;6.40;99.90;;;;;;2773561;31;20485;31
2022/11/27 10:53:41;;;;;;;;;;;6.40;99.90;;;;;;2603565;54;19934;31
2022/11/27 10:56:23;;;;;;;;;;;6.40;99.90;;;;;;2613800;46;20806;31
2022/11/27 10:58:58;;;;;;;;;;;6.50;99.90;;;;;;2603634;54;19945;31
2022/11/27 11:01:30;;;;;;;;;;;6.60;99.90;;;;;;2603765;54;19942;31
2022/11/27 11:04:07;;;;;;;;;;;6.60;99.90;;;;;;2603670;54;20794;31
2022/11/27 11:07:01;;;;;;;;;;;6.70;99.90;;;;;;2603475;54;20694;31
2022/11/27 11:09:38;;;;;;;;;;;6.70;99.90;;;;;;2603739;54;20746;31
2022/11/27 11:12:17;;;;;;;;;;;6.70;99.90;;;;;;2622366;46;20021;31
2022/11/27 11:14:52;;;;;;;;;;;6.80;99.90;;;;;;2622179;46;20708;31
2022/11/27 11:17:26;;;;;;;;;;;6.80;99.90;;;;;;2603552;54;20754;31
2022/11/27 11:20:01;;;;;;;;;;;6.80;99.90;;;;;;2603478;54;20702;31
2022/11/27 11:22:35;;;;;;;;;;;6.90;99.90;;;;;;2603561;54;19989;31
2022/11/27 11:25:17;;;;;;;;;;;6.90;99.90;;;;;;2622170;46;19934;31
2022/11/27 11:27:51;;;;;;;;;;;6.90;99.90;;;;;;2603656;54;20703;31
2022/11/27 11:30:24;;;;;;;;;;;6.90;99.90;;;;;;2603405;54;20802;31
2022/11/27 11:33:01;;;;;;;;;;;6.90;99.90;;;;;;2622056;46;20741;31
2022/11/27 11:35:35;;;;;;;;;;;7.00;99.90;;;;;;2621939;46;19941;31
2022/11/27 11:38:15;;;;;;;;;;;7.00;99.90;;;;;;2603414;54;20754;31
2022/11/27 11:43:26;;;;;;;;;;;7.00;99.90;;;;;;2603260;54;20765;31
2022/11/27 11:46:18;;;;;;;;;;;7.00;99.90;;;;;;2603324;54;19950;31
2022/11/27 11:48:59;;;;;;;;;;;7.00;99.90;;;;;;2603463;54;19934;31
2022/11/27 11:51:37;;;;;;;;;;;7.00;99.90;;;;;;2603098;54;19934;31
2022/11/27 11:54:15;;;;;;;;;;;6.90;99.90;;;;;;2622103;46;20481;31
2022/11/27 11:56:51;;;;;;;;;;;7.10;99.90;;;;;;2621718;46;19946;31
2022/11/27 11:59:32;;;;;;;;;;;7.00;99.90;;;;;;2622003;46;19962;31
2022/11/27 12:02:16;;;;;;;;;;;7.00;99.90;;;;;;2621752;46;19942;31
2022/11/27 12:04:56;;;;;;;;;;;7.00;99.90;;;;;;2603176;54;20761;31
2022/11/27 12:07:33;;;;;;;;;;;7.00;99.90;;;;;;2603306;54;20775;31
2022/11/27 12:10:09;;;;;;;;;;;7.00;99.90;;;;;;2603337;54;20736;31
2022/11/27 12:12:47;;;;;;;;;;;7.00;99.90;;;;;;2603446;54;19935;31
2022/11/27 12:15:25;;;;;;;;;;;7.00;99.90;;;;;;2621874;46;19935;31
2022/11/27 12:18:00;;;;;;;;;;;7.30;99.90;;;;;;2603268;54;19961;31
2022/11/27 12:20:42;;;;;;;;;;;7.10;99.90;;;;;;2621965;46;20468;31
2022/11/27 12:23:33;;;;;;;;;;;7.00;99.90;;;;;;2603010;54;20807;31
2022/11/27 12:26:14;;;;;;;;;;;7.10;99.90;;;;;;2603147;54;20124;31
2022/11/27 12:29:03;;;;;;;;;;;7.10;99.90;;;;;;2621655;46;19935;31
2022/11/27 12:31:53;;;;;;;;;;;7.10;99.90;;;;;;2603190;54;19934;31
2022/11/27 12:34:30;;;;;;;;;;;7.10;99.90;;;;;;2621654;47;19997;31
2022/11/27 12:37:11;;;;;;;;;;;7.10;99.90;;;;;;2603014;54;19939;31
2022/11/27 12:39:51;;;;;;;;;;;7.10;99.90;;;;;;2603069;54;19950;31
2022/11/27 12:42:26;;;;;;;;;;;7.10;99.90;;;;;;2603764;54;20847;31
2022/11/27 12:44:59;;;;;;;;;;;7.00;99.90;;;;;;2622148;46;19986;31
2022/11/27 12:47:37;;;;;;;;;;;7.00;99.90;;;;;;2622694;46;20791;31
2022/11/27 12:50:18;;;;;;;;;;;7.00;99.90;;;;;;2604336;54;20746;31
2022/11/27 12:52:53;;;;;;;;;;;7.00;99.90;;;;;;2604207;54;20817;31
2022/11/27 12:55:29;;;;;;;;;;;7.00;99.90;;;;;;2603839;54;21292;31
2022/11/27 12:58:07;;;;;;;;;;;6.90;99.90;;;;;;2604026;54;20820;31
2022/11/27 13:00:42;;;;;;;;;;;6.90;99.90;;;;;;2622302;46;19943;31
2022/11/27 13:03:18;;;;;;;;;;;6.90;99.90;;;;;;2622434;46;19935;31
2022/11/27 13:05:57;;;;;;;;;;;6.90;99.90;;;;;;2604195;54;20008;31
2022/11/27 13:08:32;;;;;;;;;;;6.90;99.90;;;;;;2622469;46;20778;31
2022/11/27 13:11:07;;;;;;;;;;;6.90;99.90;;;;;;2603152;54;19942;31
2022/11/27 13:13:42;;;;;;;;;;;6.80;99.90;;;;;;2603854;54;19934;31
2022/11/27 13:16:17;;;;;;;;;;;6.90;99.90;;;;;;2604070;54;19943;31
2022/11/27 13:18:53;;;;;;;;;;;6.90;99.90;;;;;;2702692;39;20442;31
2022/11/27 13:21:32;;;;;;;;;;;6.80;99.90;;;;;;2622177;46;19998;31
2022/11/27 13:24:08;;;;;;;;;;;6.90;99.90;;;;;;2603137;54;20825;31
2022/11/27 13:26:41;;;;;;;;;;;6.80;99.90;;;;;;2622248;46;20441;31
2022/11/27 13:29:18;;;;;;;;;;;6.90;99.90;;;;;;2603714;54;19962;31
2022/11/27 13:31:53;;;;;;;;;;;6.90;99.90;;;;;;2603899;54;19935;31
2022/11/27 13:34:28;;;;;;;;;;;6.80;99.90;;;;;;2622448;46;20799;31
2022/11/27 13:37:07;;;;;;;;;;;6.90;99.90;;;;;;2603751;54;19935;31
2022/11/27 13:39:42;;;;;;;;;;;6.90;99.90;;;;;;2604093;54;20769;31
2022/11/27 13:42:20;;;;;;;;;;;6.90;99.90;;;;;;2603795;54;20062;31
2022/11/27 13:44:55;;;;;;;;;;;6.90;99.90;;;;;;2603945;54;19935;31
2022/11/27 13:47:30;;;;;;;;;;;6.90;99.90;;;;;;2603806;54;19935;31
2022/11/27 13:50:03;;;;;;;;;;;6.90;99.90;;;;;;2603945;54;19934;31
2022/11/27 13:52:40;;;;;;;;;;;6.90;99.90;;;;;;2621939;46;19989;31
2022/11/27 13:55:15;;;;;;;;;;;6.90;99.90;;;;;;2603597;54;19934;31
2022/11/27 13:57:53;;;;;;;;;;;6.90;99.90;;;;;;2603704;54;20730;31
2022/11/27 14:00:36;;;;;;;;;;;6.90;99.90;;;;;;2603468;54;19947;31
2022/11/27 14:03:25;;;;;;;;;;;7.60;99.90;;;;;;2622475;46;19935;31
2022/11/27 14:06:00;;;;;;;;;;;6.90;99.90;;;;;;2603696;54;19935;31
2022/11/27 14:08:37;;;;;;;;;;;6.90;99.90;;;;;;2622558;46;20751;31
2022/11/27 14:11:13;;;;;;;;;;;6.90;99.90;;;;;;2622200;46;19943;31
2022/11/27 14:13:48;;;;;;;;;;;6.90;99.90;;;;;;2603755;54;19941;31
2022/11/27 14:19:35;;;;;;;;;;;6.80;99.90;;;;;;2603734;54;20488;31
2022/11/27 14:22:15;;;;;;;;;;;6.80;99.90;;;;;;2602839;54;19950;31
2022/11/27 14:24:57;;;;;;;;;;;6.80;99.90;;;;;;2603692;54;19986;31
2022/11/27 14:27:35;;;;;;;;;;;6.80;99.90;;;;;;2603836;54;19946;31
2022/11/27 14:30:22;;;;;;;;;;;6.80;99.90;;;;;;2622081;46;20767;31
2022/11/27 14:32:56;;;;;;;;;;;6.80;99.90;;;;;;2603591;54;19998;31
2022/11/27 14:35:33;;;;;;;;;;;6.70;99.90;;;;;;2622298;46;19964;31
2022/11/27 14:38:11;;;;;;;;;;;6.80;99.90;;;;;;2621991;46;19934;31
2022/11/27 14:40:48;;;;;;;;;;;6.80;99.90;;;;;;2603594;54;20827;31
2022/11/27 14:43:22;;;;;;;;;;;6.70;99.90;;;;;;2603610;54;19934;31
2022/11/27 14:46:04;;;;;;;;;;;6.70;99.90;;;;;;2603741;54;19935;31
2022/11/27 14:48:42;;;;;;;;;;;6.70;99.90;;;;;;2603495;54;19941;31
2022/11/27 14:51:17;;;;;;;;;;;6.70;99.90;;;;;;2602671;54;20021;31
2022/11/27 14:53:51;;;;;;;;;;;6.70;99.90;;;;;;2608949;46;19934;31
2022/11/27 14:56:29;;;;;;;;;;;6.70;99.90;;;;;;2622058;46;19961;31
2022/11/27 14:59:03;;;;;;;;;;;6.80;99.90;;;;;;2622243;46;19976;31
2022/11/27 15:01:38;;;;;;;;;;;6.80;99.90;;;;;;2603744;54;20026;31
2022/11/27 15:04:26;;;;;;;;;;;6.90;99.90;;;;;;2621613;46;19989;31
2022/11/27 15:07:00;;;;;;;;;;;6.90;99.90;;;;;;2773426;31;21215;31
2022/11/27 15:09:35;;;;;;;;;;;6.90;99.90;;;;;;2603597;54;19976;31
2022/11/27 15:12:16;;;;;;;;;;;6.90;99.90;;;;;;2621663;46;19946;31
2022/11/27 15:14:51;;;;;;;;;;;6.80;99.90;;;;;;2621948;46;19935;31
2022/11/27 15:17:27;;;;;;;;;;;6.70;99.90;;;;;;2622214;46;19935;31
2022/11/27 15:20:02;;;;;;;;;;;6.60;99.90;;;;;;2603366;54;19946;31
2022/11/27 15:22:37;;;;;;;;;;;6.60;99.90;;;;;;2621967;46;19934;31
2022/11/27 15:25:14;;;;;;;;;;;6.50;99.90;;;;;;2621918;46;20006;31
2022/11/27 15:27:53;;;;;;;;;;;6.50;99.90;;;;;;2603544;54;20532;31
2022/11/27 15:30:26;;;;;;;;;;;6.40;99.90;;;;;;2603573;54;20769;31
2022/11/27 15:33:01;;;;;;;;;;;6.40;99.90;;;;;;2603445;54;19942;31
2022/11/27 15:35:35;;;;;;;;;;;6.40;99.90;;;;;;2603348;54;19938;31
2022/11/27 15:38:10;;;;;;;;;;;6.40;99.90;;;;;;2603512;54;20477;31
2022/11/27 15:40:44;;;;;;;;;;;6.40;99.90;;;;;;2603309;54;19935;31
2022/11/27 15:43:23;;;;;;;;;;;6.30;99.90;;;;;;2603271;54;20655;31
2022/11/27 15:45:57;;;;;;;;;;;6.30;99.90;;;;;;2603409;54;19934;31
2022/11/27 15:48:34;;;;;;;;;;;6.30;99.90;;;;;;2621937;46;19935;31
2022/11/27 15:51:11;;;;;;;;;;;6.30;99.90;;;;;;2603590;54;20768;31
2022/11/27 15:53:47;;;;;;;;;;;6.30;99.90;;;;;;2603432;54;19934;31